Time;durP1;ratioP1;P1;durP2;ratioP2;P2;SDS_P1;SDS_P2;PMS_P1;PMS_P2;Temp;Humidity;BMP_temperature;BMP_pressure;BME280_temperature;BME280_humidity;BME280_pressure;Samples;Min_cycle;Max_cycle;Signal;HPM_P1;HPM_P2
2022/04/26 03:37:07;;;;;;;2.85;2.65;;;;;;;;;;760033;77;26225;-74
2022/04/26 03:47:49;;;;;;;15.28;10.23;;;;;;;;;;794568;74;26200;-74
2022/04/26 03:48:54;;;;;;;10.85;7.53;;;;;;;;;;786878;75;26235;-74
2022/04/26 03:49:57;;;;;;;8.95;5.70;;;;;;;;;;810868;72;26227;-76
2022/04/26 03:51:00;;;;;;;5.00;4.58;;;;;;;;;;810824;73;26311;-74
2022/04/26 03:52:03;;;;;;;3.77;3.45;;;;;;;;;;811007;73;26231;-76
2022/04/26 03:53:06;;;;;;;4.80;4.05;;;;;;;;;;810722;73;26227;-77
2022/04/26 03:57:34;;;;;;;5.83;4.83;;;;;;;;;;762398;78;26303;-73
2022/04/26 03:58:43;;;;;;;6.80;5.30;;;;;;;;;;762071;78;26310;-77
2022/04/26 03:59:45;;;;;;;8.15;4.55;;;;;;;;;;762470;78;26319;-75
2022/04/26 04:00:48;;;;;;;7.42;4.50;;;;;;;;;;762743;78;26313;-75
2022/04/26 04:01:51;;;;;;;4.40;3.83;;;;;;;;;;762538;78;26323;-77
2022/04/26 04:02:54;;;;;;;5.47;4.33;;;;;;;;;;762693;78;26260;-76
2022/04/26 04:05:49;;;;;;;5.03;4.45;;;;;;;;;;796901;73;26397;-76
2022/04/26 04:06:56;;;;;;;4.72;3.90;;;;;;;;;;799097;73;26765;-74
2022/04/26 04:07:59;;;;;;;8.18;4.60;;;;;;;;;;798493;74;26218;-75
2022/04/26 04:09:05;;;;;;;6.55;4.25;;;;;;;;;;798587;74;26222;-75
2022/04/26 04:10:08;;;;;;;5.97;3.92;;;;;;;;;;798553;74;26229;-74
2022/04/26 04:11:11;;;;;;;6.47;4.40;;;;;;;;;;798508;74;26217;-74
2022/04/26 04:12:14;;;;;;;6.35;5.08;;;;;;;;;;798495;74;26240;-74
2022/04/26 04:16:45;;;;;;;8.50;4.50;;;;;;;;;;781145;75;26757;-74
2022/04/26 04:17:49;;;;;;;5.85;4.80;;;;;;;;;;783863;75;26254;-74
2022/04/26 04:20:15;;;;;;;8.45;4.95;;;;;;;;;;783249;75;26247;-73
2022/04/26 04:21:20;;;;;;;8.93;5.20;;;;;;;;;;781788;76;26286;-73
2022/04/26 04:22:24;;;;;;;8.78;4.95;;;;;;;;;;775641;76;26249;-74
2022/04/26 04:27:10;;;;;;;8.65;4.55;;;;;;;;;;802499;74;26253;-74
2022/04/26 04:28:15;;;;;;;4.42;4.03;;;;;;;;;;802847;73;26231;-75
2022/04/26 04:36:40;;;;;;;6.23;4.67;;;;;;;;;;787758;75;26335;-74
2022/04/26 04:37:43;;;;;;;9.10;4.30;;;;;;;;;;787073;74;26460;-75
2022/04/26 04:38:50;;;;;;;4.90;4.27;;;;;;;;;;790276;75;26399;-73
2022/04/26 04:39:57;;;;;;;5.40;4.30;;;;;;;;;;787136;75;26393;-75
2022/04/26 04:41:08;;;;;;;4.87;4.30;;;;;;;;;;791053;75;26465;-76
2022/04/26 04:42:15;;;;;;;6.60;4.63;;;;;;;;;;787136;75;26456;-76
2022/04/26 04:48:18;;;;;;;9.40;6.70;;;;;;;;;;820674;72;26936;-71
2022/04/26 04:49:29;;;;;;;6.33;5.77;;;;;;;;;;801825;74;26539;-74
2022/04/26 04:52:52;;;;;;;8.27;5.90;;;;;;;;;;764032;77;26504;-75
2022/04/26 04:57:04;;;;;;;8.10;5.07;;;;;;;;;;786171;73;26470;-74
2022/04/26 04:58:12;;;;;;;9.87;5.37;;;;;;;;;;780355;76;26532;-73
2022/04/26 04:59:22;;;;;;;6.13;4.40;;;;;;;;;;780348;76;26301;-74
2022/04/26 05:00:37;;;;;;;5.17;4.67;;;;;;;;;;780620;76;26956;-73
2022/04/26 05:01:41;;;;;;;4.83;4.33;;;;;;;;;;781588;76;26472;-73
2022/04/26 05:02:44;;;;;;;5.23;4.50;;;;;;;;;;781569;76;26456;-73
2022/04/26 05:07:15;;;;;;;6.50;4.20;;;;;;;;;;759031;77;26419;-73
2022/04/26 05:08:26;;;;;;;5.57;4.80;;;;;;;;;;756668;78;26474;-73
2022/04/26 05:09:37;;;;;;;5.00;4.00;;;;;;;;;;742470;80;26469;-74
2022/04/26 05:10:45;;;;;;;6.77;4.13;;;;;;;;;;749509;78;26625;-74
2022/04/26 05:11:57;;;;;;;5.37;3.77;;;;;;;;;;735933;80;26526;-72
2022/04/26 05:21:59;;;;;;;4.27;3.43;;;;;;;;;;733840;79;26529;-74
2022/04/26 05:26:54;;;;;;;4.13;3.60;;;;;;;;;;761764;76;26606;-74
2022/04/26 05:27:58;;;;;;;4.70;3.37;;;;;;;;;;779755;76;26480;-73
2022/04/26 05:29:01;;;;;;;4.67;3.63;;;;;;;;;;780099;76;26428;-74
2022/04/26 05:30:06;;;;;;;3.90;3.10;;;;;;;;;;780570;76;26584;-74
2022/04/26 05:31:13;;;;;;;4.13;3.53;;;;;;;;;;781212;76;26436;-74
2022/04/26 05:32:24;;;;;;;5.47;3.23;;;;;;;;;;777998;76;26492;-72
2022/04/26 05:37:09;;;;;;;5.10;3.50;;;;;;;;;;774539;74;26471;-73
2022/04/26 05:38:12;;;;;;;4.00;3.27;;;;;;;;;;771954;77;26362;-73
2022/04/26 05:39:14;;;;;;;4.00;3.10;;;;;;;;;;768930;77;26596;-74
2022/04/26 05:40:19;;;;;;;4.40;3.30;;;;;;;;;;767734;77;26487;-73
2022/04/26 05:41:22;;;;;;;3.10;2.90;;;;;;;;;;767183;77;26924;-73
2022/04/26 05:42:24;;;;;;;5.20;3.03;;;;;;;;;;767212;77;26932;-73
2022/04/26 05:47:09;;;;;;;4.50;3.40;;;;;;;;;;785008;74;26892;-73
2022/04/26 05:48:13;;;;;;;3.70;3.30;;;;;;;;;;780427;76;26482;-73
2022/04/26 05:49:17;;;;;;;7.20;3.50;;;;;;;;;;780391;76;26530;-73
2022/04/26 05:50:22;;;;;;;5.47;3.33;;;;;;;;;;780347;76;26482;-73
2022/04/26 05:51:24;;;;;;;4.70;3.77;;;;;;;;;;780380;76;26914;-73
2022/04/26 05:52:29;;;;;;;4.50;3.00;;;;;;;;;;780454;76;26562;-74
2022/04/26 05:56:58;;;;;;;3.53;3.23;;;;;;;;;;780942;74;26908;-72
2022/04/26 05:58:04;;;;;;;5.13;3.40;;;;;;;;;;793636;74;26895;-74
2022/04/26 05:59:07;;;;;;;3.67;2.93;;;;;;;;;;794899;74;26479;-73
2022/04/26 06:00:11;;;;;;;3.27;2.97;;;;;;;;;;794914;74;26428;-73
2022/04/26 06:01:14;;;;;;;3.43;2.80;;;;;;;;;;794867;74;26935;-74
2022/04/26 06:02:17;;;;;;;3.50;2.90;;;;;;;;;;794868;74;26470;-74
2022/04/26 06:16:33;;;;;;;4.30;2.60;;;;;;;;;;764711;77;26403;-73
2022/04/26 06:17:37;;;;;;;3.17;2.90;;;;;;;;;;749815;79;26517;-73
2022/04/26 06:18:40;;;;;;;6.40;2.80;;;;;;;;;;762498;77;26441;-74
2022/04/26 06:19:43;;;;;;;4.73;3.27;;;;;;;;;;750472;79;27014;-74
2022/04/26 06:20:45;;;;;;;5.30;3.47;;;;;;;;;;750414;79;26594;-73
2022/04/26 06:21:49;;;;;;;3.30;3.00;;;;;;;;;;765000;77;26486;-73
2022/04/26 06:26:20;;;;;;;3.60;3.10;;;;;;;;;;780138;74;26547;-73
2022/04/26 06:27:23;;;;;;;5.23;2.67;;;;;;;;;;794369;74;26472;-73
2022/04/26 06:28:26;;;;;;;4.63;3.07;;;;;;;;;;794334;74;26892;-73
2022/04/26 06:29:29;;;;;;;4.80;2.50;;;;;;;;;;794283;74;26570;-73
2022/04/26 06:30:33;;;;;;;3.60;2.93;;;;;;;;;;794362;74;26860;-73
2022/04/26 06:31:35;;;;;;;4.53;2.80;;;;;;;;;;794285;74;26493;-72
2022/04/26 06:32:38;;;;;;;6.20;3.10;;;;;;;;;;794356;74;26551;-72
2022/04/26 06:35:40;;;;;;;4.03;2.73;;;;;;;;;;794157;74;26992;-73
2022/04/26 06:36:42;;;;;;;3.20;2.90;;;;;;;;;;792455;74;26625;-73
2022/04/26 06:37:45;;;;;;;3.00;2.73;;;;;;;;;;792783;75;26549;-73
2022/04/26 06:38:49;;;;;;;2.83;2.63;;;;;;;;;;792837;75;26522;-73
2022/04/26 06:39:53;;;;;;;4.97;2.97;;;;;;;;;;794177;75;26547;-74
2022/04/26 06:40:56;;;;;;;3.43;2.70;;;;;;;;;;793436;75;26515;-73
2022/04/26 06:41:59;;;;;;;3.40;2.90;;;;;;;;;;794561;75;26525;-74
2022/04/26 06:46:34;;;;;;;3.87;2.67;;;;;;;;;;778622;74;26522;-75
2022/04/26 06:47:37;;;;;;;3.23;2.93;;;;;;;;;;807874;73;26823;-73
2022/04/26 06:48:41;;;;;;;6.13;2.90;;;;;;;;;;810552;73;26553;-73
2022/04/26 06:49:44;;;;;;;3.23;2.80;;;;;;;;;;805301;73;26510;-73
2022/04/26 06:50:46;;;;;;;4.07;2.63;;;;;;;;;;805232;73;26451;-73
2022/04/26 06:51:49;;;;;;;3.57;2.93;;;;;;;;;;805232;73;26493;-72
2022/04/26 06:57:52;;;;;;;3.10;2.80;;;;;;;;;;766244;76;26914;-73
2022/04/26 06:58:56;;;;;;;4.70;2.60;;;;;;;;;;749517;79;26805;-74
2022/04/26 06:59:59;;;;;;;3.40;2.50;;;;;;;;;;762946;77;26473;-73
2022/04/26 07:01:02;;;;;;;4.60;2.60;;;;;;;;;;747234;79;26515;-74
2022/04/26 07:02:06;;;;;;;4.23;2.73;;;;;;;;;;751060;78;26562;-73
2022/04/26 07:06:39;;;;;;;3.23;2.93;;;;;;;;;;806554;73;26437;-73
2022/04/26 07:07:43;;;;;;;5.20;2.90;;;;;;;;;;791514;75;26344;-74
2022/04/26 07:15:23;;;;;;;3.57;2.77;;;;;;;;;;781961;75;26560;-74
2022/04/26 07:18:12;;;;;;;6.03;2.90;;;;;;;;;;779334;74;26522;-73
2022/04/26 07:19:35;;;;;;;4.07;2.77;;;;;;;;;;784639;75;26514;-74
2022/04/26 07:20:40;;;;;;;2.50;2.30;;;;;;;;;;782246;75;26410;-73
2022/04/26 07:21:49;;;;;;;4.10;2.73;;;;;;;;;;785777;75;26417;-72
2022/04/26 07:26:32;;;;;;;7.20;2.87;;;;;;;;;;783509;75;26831;-75
2022/04/26 07:27:34;;;;;;;3.63;2.60;;;;;;;;;;780749;74;26495;-73
2022/04/26 07:28:37;;;;;;;3.40;2.30;;;;;;;;;;780179;76;26425;-74
2022/04/26 07:29:41;;;;;;;2.57;2.37;;;;;;;;;;780250;76;26438;-74
2022/04/26 07:30:44;;;;;;;3.47;2.40;;;;;;;;;;780252;75;26475;-74
2022/04/26 07:31:47;;;;;;;3.60;2.60;;;;;;;;;;780266;76;26492;-74
2022/04/26 07:36:34;;;;;;;3.80;3.30;;;;;;;;;;796477;74;26862;-74
2022/04/26 07:37:37;;;;;;;3.77;3.30;;;;;;;;;;794508;74;26802;-74
2022/04/26 07:38:42;;;;;;;4.13;3.70;;;;;;;;;;794492;74;26498;-74
2022/04/26 07:39:44;;;;;;;4.57;4.13;;;;;;;;;;794563;74;26472;-74
2022/04/26 07:40:47;;;;;;;5.80;3.93;;;;;;;;;;794533;74;26468;-74
2022/04/26 07:41:50;;;;;;;7.97;4.67;;;;;;;;;;794452;74;26801;-74
2022/04/26 07:49:35;;;;;;;3.67;2.93;;;;;;;;;;776414;76;26233;-73
2022/04/26 07:50:38;;;;;;;4.73;3.10;;;;;;;;;;779740;75;26505;-74
2022/04/26 07:51:42;;;;;;;3.87;3.10;;;;;;;;;;780126;76;26559;-74
2022/04/26 07:55:01;;;;;;;3.10;2.80;;;;;;;;;;781599;76;26464;-74
2022/04/26 07:56:06;;;;;;;4.63;2.83;;;;;;;;;;789018;75;26457;-74
2022/04/26 07:57:09;;;;;;;5.33;3.10;;;;;;;;;;792925;75;26528;-73
2022/04/26 07:58:12;;;;;;;3.30;2.50;;;;;;;;;;792890;75;26692;-74
2022/04/26 07:59:15;;;;;;;4.00;2.63;;;;;;;;;;792868;75;26526;-73
2022/04/26 08:00:18;;;;;;;5.10;2.80;;;;;;;;;;792844;75;26464;-74
2022/04/26 08:01:21;;;;;;;3.40;2.93;;;;;;;;;;792818;75;26510;-73
2022/04/26 08:02:24;;;;;;;3.30;3.00;;;;;;;;;;792943;75;26449;-74
2022/04/26 08:08:24;;;;;;;3.30;2.60;;;;;;;;;;747226;76;26381;-73
2022/04/26 08:09:29;;;;;;;3.03;2.77;;;;;;;;;;766639;77;26946;-74
2022/04/26 08:10:35;;;;;;;4.30;2.70;;;;;;;;;;763643;77;26500;-75
2022/04/26 08:11:38;;;;;;;3.27;2.60;;;;;;;;;;763842;78;26440;-75
2022/04/26 08:14:56;;;;;;;6.23;3.30;;;;;;;;;;764181;78;26521;-73
2022/04/26 08:16:00;;;;;;;5.03;2.60;;;;;;;;;;784826;76;26349;-74
2022/04/26 08:17:03;;;;;;;3.60;2.60;;;;;;;;;;783948;75;26517;-73
2022/04/26 08:19:34;;;;;;;4.07;2.80;;;;;;;;;;789598;73;26263;-74
2022/04/26 08:20:38;;;;;;;4.47;3.77;;;;;;;;;;789591;75;26218;-73
2022/04/26 08:21:41;;;;;;;5.10;3.20;;;;;;;;;;789657;75;26456;-73
2022/04/26 08:27:23;;;;;;;7.27;3.60;;;;;;;;;;777567;76;26422;-73
2022/04/26 08:28:28;;;;;;;7.63;4.00;;;;;;;;;;778786;76;26865;-74
2022/04/26 08:29:31;;;;;;;4.03;3.33;;;;;;;;;;778713;76;26559;-74
2022/04/26 08:30:37;;;;;;;8.70;3.90;;;;;;;;;;778681;76;26543;-74
2022/04/26 08:35:17;;;;;;;7.60;4.00;;;;;;;;;;771468;75;26626;-73
2022/04/26 08:36:22;;;;;;;6.83;3.90;;;;;;;;;;780570;75;26498;-73
2022/04/26 08:37:25;;;;;;;10.17;4.03;;;;;;;;;;780440;76;26761;-74
2022/04/26 08:38:28;;;;;;;8.90;4.07;;;;;;;;;;793644;75;26299;-73
2022/04/26 08:39:31;;;;;;;9.30;4.40;;;;;;;;;;779331;76;26436;-73
2022/04/26 08:40:35;;;;;;;7.13;3.50;;;;;;;;;;801531;74;26740;-73
2022/04/26 08:41:38;;;;;;;4.50;3.40;;;;;;;;;;801477;74;26488;-74
2022/04/26 08:46:10;;;;;;;5.50;3.27;;;;;;;;;;741531;78;26348;-73
2022/04/26 08:51:15;;;;;;;10.07;4.67;;;;;;;;;;756124;78;26523;-73
2022/04/26 08:54:34;;;;;;;6.70;4.40;;;;;;;;;;756895;78;26451;-72
2022/04/26 08:55:43;;;;;;;5.70;3.60;;;;;;;;;;751879;78;26329;-73
2022/04/26 08:56:46;;;;;;;9.50;4.23;;;;;;;;;;775994;76;26354;-72
2022/04/26 08:57:49;;;;;;;8.87;4.13;;;;;;;;;;776026;76;26232;-73
2022/04/26 08:58:52;;;;;;;11.13;3.87;;;;;;;;;;775993;76;26572;-73
2022/04/26 08:59:55;;;;;;;9.20;4.33;;;;;;;;;;776005;76;26463;-73
2022/04/26 09:01:05;;;;;;;7.53;4.40;;;;;;;;;;775893;76;26900;-73
2022/04/26 09:05:51;;;;;;;7.43;3.60;;;;;;;;;;786120;75;26556;-72
2022/04/26 09:06:54;;;;;;;5.07;3.67;;;;;;;;;;784758;75;26936;-72
2022/04/26 09:07:58;;;;;;;4.83;3.90;;;;;;;;;;786248;75;26419;-73
2022/04/26 09:09:08;;;;;;;4.23;3.67;;;;;;;;;;786236;75;26363;-73
2022/04/26 09:10:19;;;;;;;6.87;4.10;;;;;;;;;;786192;75;26406;-72
2022/04/26 09:11:27;;;;;;;7.70;4.20;;;;;;;;;;786463;75;26801;-73
2022/04/26 09:14:50;;;;;;;5.23;4.07;;;;;;;;;;786543;75;26399;-72
2022/04/26 09:15:55;;;;;;;7.07;3.93;;;;;;;;;;758471;78;26487;-73
2022/04/26 09:17:08;;;;;;;5.80;4.27;;;;;;;;;;764562;77;26497;-72
2022/04/26 09:20:26;;;;;;;5.23;4.00;;;;;;;;;;724578;82;26603;-71
2022/04/26 09:21:30;;;;;;;5.93;3.97;;;;;;;;;;773841;76;26548;-73
2022/04/26 09:24:19;;;;;;;5.70;3.67;;;;;;;;;;795919;73;26619;-74
2022/04/26 09:25:21;;;;;;;7.53;3.93;;;;;;;;;;805516;73;26597;-73
2022/04/26 09:26:25;;;;;;;7.60;4.00;;;;;;;;;;806602;73;26503;-73
2022/04/26 09:27:31;;;;;;;7.73;4.13;;;;;;;;;;806391;73;26462;-73
2022/04/26 09:28:34;;;;;;;9.30;3.60;;;;;;;;;;806332;73;26553;-72
2022/04/26 09:29:38;;;;;;;8.40;4.63;;;;;;;;;;806348;73;26498;-72
2022/04/26 09:30:42;;;;;;;7.13;3.97;;;;;;;;;;806281;73;26944;-73
2022/04/26 09:31:46;;;;;;;8.20;4.27;;;;;;;;;;806312;73;26613;-73
2022/04/26 09:34:47;;;;;;;4.73;4.20;;;;;;;;;;770201;76;27187;-73
2022/04/26 09:35:53;;;;;;;6.57;3.90;;;;;;;;;;773111;76;27117;-73
2022/04/26 09:36:56;;;;;;;4.30;3.87;;;;;;;;;;777011;76;26745;-72
2022/04/26 09:38:03;;;;;;;5.00;4.30;;;;;;;;;;793236;75;26637;-74
2022/04/26 09:39:08;;;;;;;7.53;4.50;;;;;;;;;;793254;75;26916;-73
2022/04/26 09:40:12;;;;;;;4.93;4.20;;;;;;;;;;793293;75;26630;-75
2022/04/26 09:41:16;;;;;;;8.13;4.30;;;;;;;;;;793203;75;26615;-74
2022/04/26 09:50:12;;;;;;;12.20;4.60;;;;;;;;;;749262;77;26976;-76
2022/04/26 09:51:16;;;;;;;6.50;4.13;;;;;;;;;;762866;77;26788;-76
2022/04/26 09:55:41;;;;;;;10.63;4.13;;;;;;;;;;770111;75;26977;-74
2022/04/26 09:56:45;;;;;;;7.10;4.43;;;;;;;;;;783148;76;26938;-75
2022/04/26 09:57:49;;;;;;;5.87;3.90;;;;;;;;;;783099;76;26932;-74
2022/04/26 09:58:54;;;;;;;8.83;4.00;;;;;;;;;;783212;76;26980;-74
2022/04/26 09:59:56;;;;;;;6.40;3.67;;;;;;;;;;783108;76;26921;-74
2022/04/26 10:01:01;;;;;;;9.43;5.27;;;;;;;;;;783155;76;27028;-73
2022/04/26 10:04:06;;;;;;;8.30;4.20;;;;;;;;;;783354;76;27299;-74
2022/04/26 10:05:09;;;;;;;6.60;4.40;;;;;;;;;;789077;74;26780;-72
2022/04/26 10:11:15;;;;;;;6.67;4.70;;;;;;;;;;826248;71;27091;-72
2022/04/26 10:15:24;;;;;;;7.17;4.50;;;;;;;;;;793431;74;26683;-75
2022/04/26 10:16:27;;;;;;;7.93;5.07;;;;;;;;;;779734;76;26781;-75
2022/04/26 10:17:32;;;;;;;7.17;4.40;;;;;;;;;;782058;76;26773;-74
2022/04/26 10:18:36;;;;;;;8.33;4.17;;;;;;;;;;774269;76;26945;-74
2022/04/26 10:19:40;;;;;;;9.43;4.97;;;;;;;;;;790714;74;26945;-73
2022/04/26 10:20:44;;;;;;;7.67;4.77;;;;;;;;;;792328;75;27011;-75
2022/04/26 10:25:33;;;;;;;5.83;4.20;;;;;;;;;;793126;75;26905;-74
2022/04/26 10:26:36;;;;;;;8.50;4.80;;;;;;;;;;779822;76;26981;-75
2022/04/26 10:27:40;;;;;;;6.37;4.20;;;;;;;;;;765690;77;27051;-75
2022/04/26 10:28:50;;;;;;;7.63;4.33;;;;;;;;;;779750;76;26931;-75
2022/04/26 10:29:53;;;;;;;8.77;4.80;;;;;;;;;;766268;77;26962;-75
2022/04/26 10:30:56;;;;;;;7.47;4.20;;;;;;;;;;779560;76;27382;-77
2022/04/26 10:34:03;;;;;;;7.60;4.80;;;;;;;;;;778888;76;26904;-75
2022/04/26 10:38:15;;;;;;;6.13;5.17;;;;;;;;;;787383;75;26956;-76
2022/04/26 10:39:21;;;;;;;5.97;4.63;;;;;;;;;;790193;75;26972;-75
2022/04/26 10:40:24;;;;;;;5.47;4.23;;;;;;;;;;790255;75;26972;-75
2022/04/26 10:41:28;;;;;;;11.23;4.60;;;;;;;;;;790236;74;26917;-74
2022/04/26 10:44:41;;;;;;;6.03;4.57;;;;;;;;;;790525;75;26860;-79
2022/04/26 10:45:45;;;;;;;8.23;4.70;;;;;;;;;;775709;76;26957;-74
2022/04/26 10:46:52;;;;;;;7.53;4.93;;;;;;;;;;758893;78;27030;-75
2022/04/26 10:47:57;;;;;;;7.13;5.00;;;;;;;;;;749742;79;27085;-76
2022/04/26 10:49:02;;;;;;;6.90;4.93;;;;;;;;;;770976;76;26948;-76
2022/04/26 10:50:09;;;;;;;8.33;5.30;;;;;;;;;;759953;78;27058;-76
2022/04/26 10:51:30;;;;;;;7.73;4.77;;;;;;;;;;765322;77;26972;-76
2022/04/26 10:59:14;;;;;;;6.30;4.47;;;;;;;;;;780137;76;27381;-76
2022/04/26 11:00:21;;;;;;;4.70;4.03;;;;;;;;;;776359;76;27368;-77
2022/04/26 11:01:30;;;;;;;4.80;3.97;;;;;;;;;;780057;76;26980;-76
2022/04/26 11:07:53;;;;;;;8.23;3.73;;;;;;;;;;759878;77;26961;-74
2022/04/26 11:09:07;;;;;;;6.23;3.70;;;;;;;;;;763769;77;26978;-76
2022/04/26 11:10:12;;;;;;;10.87;3.30;;;;;;;;;;764074;77;26956;-75
2022/04/26 11:11:16;;;;;;;8.13;4.40;;;;;;;;;;764060;77;26967;-75
2022/04/26 11:14:35;;;;;;;7.70;3.90;;;;;;;;;;793338;74;27052;-76
2022/04/26 11:15:48;;;;;;;6.07;3.90;;;;;;;;;;805211;71;27366;-76
2022/04/26 11:28:02;;;;;;;4.37;3.97;;;;;;;;;;766665;75;27069;-73
2022/04/26 11:29:24;;;;;;;5.90;4.40;;;;;;;;;;773004;76;27508;-74
2022/04/26 11:30:39;;;;;;;6.73;3.83;;;;;;;;;;740236;79;26980;-76
2022/04/26 11:31:48;;;;;;;4.60;3.57;;;;;;;;;;766540;76;26978;-76
2022/04/26 11:32:51;;;;;;;6.23;4.30;;;;;;;;;;772103;76;27399;-75
2022/04/26 11:33:56;;;;;;;6.33;5.73;;;;;;;;;;768329;76;27578;-74
2022/04/26 11:35:19;;;;;;;6.07;5.20;;;;;;;;;;772404;76;27040;-74
2022/04/26 11:39:45;;;;;;;6.80;4.30;;;;;;;;;;763149;75;26937;-73
2022/04/26 11:44:07;;;;;;;4.30;3.80;;;;;;;;;;772075;76;27434;-74
2022/04/26 11:45:16;;;;;;;5.07;3.53;;;;;;;;;;773635;75;26976;-75
2022/04/26 11:46:21;;;;;;;5.40;4.03;;;;;;;;;;773412;77;27409;-75
2022/04/26 11:47:39;;;;;;;3.77;3.33;;;;;;;;;;773805;76;26931;-75
2022/04/26 11:48:43;;;;;;;4.37;3.20;;;;;;;;;;776386;76;26911;-74
2022/04/26 11:49:46;;;;;;;5.27;3.53;;;;;;;;;;777352;75;26963;-76
2022/04/26 11:52:32;;;;;;;4.60;3.77;;;;;;;;;;764796;76;27027;-73
2022/04/26 11:53:36;;;;;;;4.00;2.83;;;;;;;;;;762816;76;26948;-76
2022/04/26 11:54:39;;;;;;;5.30;3.73;;;;;;;;;;761619;75;27429;-76
2022/04/26 11:55:45;;;;;;;5.20;3.47;;;;;;;;;;761861;77;27004;-76
2022/04/26 11:56:48;;;;;;;4.63;3.87;;;;;;;;;;763991;76;26984;-76
2022/04/26 11:57:51;;;;;;;3.70;3.10;;;;;;;;;;759892;76;26956;-75
2022/04/26 11:58:54;;;;;;;3.90;3.23;;;;;;;;;;762596;77;27113;-76
2022/04/26 11:59:58;;;;;;;5.43;3.57;;;;;;;;;;762699;78;27417;-75
2022/04/26 12:02:57;;;;;;;4.30;3.93;;;;;;;;;;786381;73;26897;-76
2022/04/26 12:04:00;;;;;;;5.87;3.77;;;;;;;;;;789627;73;27020;-75
2022/04/26 12:06:29;;;;;;;4.10;3.10;;;;;;;;;;787573;73;27367;-75
2022/04/26 12:07:32;;;;;;;4.50;2.93;;;;;;;;;;784040;75;26928;-75
2022/04/26 12:08:36;;;;;;;7.33;3.17;;;;;;;;;;783984;75;26933;-75
2022/04/26 12:09:41;;;;;;;7.87;3.47;;;;;;;;;;781112;75;26948;-76
2022/04/26 12:14:17;;;;;;;4.30;2.87;;;;;;;;;;780270;74;26980;-75
2022/04/26 12:15:27;;;;;;;5.93;2.93;;;;;;;;;;759730;77;26947;-74
2022/04/26 12:16:30;;;;;;;6.77;3.57;;;;;;;;;;783855;75;27394;-76
2022/04/26 12:17:33;;;;;;;7.67;3.47;;;;;;;;;;769876;77;26937;-76
2022/04/26 12:18:38;;;;;;;4.37;2.70;;;;;;;;;;759665;77;27008;-74
2022/04/26 12:19:41;;;;;;;7.20;2.60;;;;;;;;;;763459;77;27367;-75
2022/04/26 12:22:35;;;;;;;3.57;2.87;;;;;;;;;;782288;75;26872;-74
2022/04/26 12:23:41;;;;;;;5.67;3.00;;;;;;;;;;778940;74;26981;-75
2022/04/26 12:24:49;;;;;;;5.47;2.70;;;;;;;;;;788615;75;26924;-74
2022/04/26 12:25:55;;;;;;;4.53;2.67;;;;;;;;;;768824;77;26944;-74
2022/04/26 12:33:06;;;;;;;3.87;2.77;;;;;;;;;;746008;78;26986;-75
2022/04/26 12:34:13;;;;;;;3.23;2.60;;;;;;;;;;776267;76;27428;-75
2022/04/26 12:35:18;;;;;;;4.57;3.00;;;;;;;;;;776191;75;27417;-75
2022/04/26 12:36:20;;;;;;;3.37;3.03;;;;;;;;;;770020;75;27078;-76
2022/04/26 12:37:25;;;;;;;9.13;3.67;;;;;;;;;;762766;77;27364;-74
2022/04/26 12:38:28;;;;;;;4.33;2.70;;;;;;;;;;767369;75;27383;-75
2022/04/26 12:39:48;;;;;;;3.60;3.30;;;;;;;;;;763089;77;27163;-75
2022/04/26 12:42:42;;;;;;;4.67;2.80;;;;;;;;;;788647;74;26977;-74
2022/04/26 12:43:47;;;;;;;5.70;3.03;;;;;;;;;;787281;75;26901;-75
2022/04/26 12:44:59;;;;;;;4.50;3.03;;;;;;;;;;783203;74;26923;-76
2022/04/26 12:55:54;;;;;;;4.07;2.73;;;;;;;;;;773176;75;26872;-75
2022/04/26 12:56:59;;;;;;;31.57;5.00;;;;;;;;;;766916;76;26872;-77
2022/04/26 12:58:05;;;;;;;13.47;3.83;;;;;;;;;;777549;76;26940;-75
2022/04/26 12:59:17;;;;;;;8.40;3.57;;;;;;;;;;771485;76;26781;-75
2022/04/26 13:03:56;;;;;;;4.73;3.10;;;;;;;;;;790340;74;26602;-75
2022/04/26 13:04:59;;;;;;;4.53;2.90;;;;;;;;;;787387;74;26530;-76
2022/04/26 13:06:09;;;;;;;4.70;2.60;;;;;;;;;;787604;74;26594;-76
2022/04/26 13:07:14;;;;;;;3.97;2.93;;;;;;;;;;789812;74;26513;-76
2022/04/26 13:08:18;;;;;;;6.20;3.10;;;;;;;;;;788165;74;26583;-75
2022/04/26 13:09:21;;;;;;;7.50;3.03;;;;;;;;;;787022;74;26738;-73
2022/04/26 13:12:17;;;;;;;4.97;2.63;;;;;;;;;;781656;74;26655;-74
2022/04/26 13:13:20;;;;;;;6.50;2.80;;;;;;;;;;770082;76;26579;-74
2022/04/26 13:14:23;;;;;;;5.10;2.83;;;;;;;;;;790958;73;26470;-73
2022/04/26 13:15:28;;;;;;;2.73;2.50;;;;;;;;;;802860;73;26406;-74
2022/04/26 13:16:31;;;;;;;4.90;3.00;;;;;;;;;;802362;74;26448;-76
2022/04/26 13:17:35;;;;;;;6.47;2.80;;;;;;;;;;801482;73;27106;-75
2022/04/26 13:24:47;;;;;;;3.73;2.97;;;;;;;;;;791658;74;26385;-74
2022/04/26 13:25:50;;;;;;;6.13;2.93;;;;;;;;;;779163;76;26622;-76
2022/04/26 13:26:55;;;;;;;5.50;2.80;;;;;;;;;;775587;75;26496;-75
2022/04/26 13:27:59;;;;;;;3.57;2.60;;;;;;;;;;789515;74;26538;-75
2022/04/26 13:29:03;;;;;;;9.70;3.20;;;;;;;;;;784505;74;26462;-74
2022/04/26 13:33:22;;;;;;;4.93;2.73;;;;;;;;;;816530;72;26437;-71
2022/04/26 13:34:25;;;;;;;3.80;2.33;;;;;;;;;;796092;74;26518;-72
2022/04/26 13:35:29;;;;;;;4.00;2.40;;;;;;;;;;783032;75;26728;-72
2022/04/26 13:36:34;;;;;;;4.00;2.30;;;;;;;;;;791773;74;27003;-73
2022/04/26 13:37:38;;;;;;;6.37;3.07;;;;;;;;;;794662;74;26777;-72
2022/04/26 13:38:41;;;;;;;5.97;2.40;;;;;;;;;;790344;74;26900;-71
2022/04/26 13:43:01;;;;;;;3.33;2.33;;;;;;;;;;774531;75;26524;-71
2022/04/26 13:44:04;;;;;;;4.20;2.47;;;;;;;;;;758398;76;26500;-71
2022/04/26 13:45:07;;;;;;;3.37;2.30;;;;;;;;;;765478;76;26575;-70
2022/04/26 13:46:11;;;;;;;6.50;2.80;;;;;;;;;;768486;76;26549;-72
2022/04/26 13:47:14;;;;;;;4.00;2.60;;;;;;;;;;761800;75;26695;-72
2022/04/26 13:55:17;;;;;;;4.37;2.75;;;;;;;;;;781617;73;26222;-71
2022/04/26 13:56:17;;;;;;;4.60;3.20;;;;;;;;;;786861;74;26239;-71
2022/04/26 13:57:20;;;;;;;3.37;2.72;;;;;;;;;;773732;74;26237;-71
2022/04/26 13:58:23;;;;;;;4.30;2.70;;;;;;;;;;775094;76;26245;-72
2022/04/26 13:59:26;;;;;;;3.95;2.98;;;;;;;;;;779978;76;26233;-72
2022/04/26 14:03:46;;;;;;;4.05;2.92;;;;;;;;;;764800;76;26295;-72
2022/04/26 14:04:49;;;;;;;3.65;3.27;;;;;;;;;;770655;75;26264;-72
2022/04/26 14:05:52;;;;;;;4.55;2.90;;;;;;;;;;760128;77;26708;-71
2022/04/26 14:06:55;;;;;;;4.95;2.75;;;;;;;;;;766397;76;26322;-72
2022/04/26 14:07:58;;;;;;;4.00;2.87;;;;;;;;;;773471;75;26409;-71
2022/04/26 14:09:00;;;;;;;3.77;2.90;;;;;;;;;;771936;77;26282;-73
2022/04/26 14:23:06;;;;;;;5.42;3.10;;;;;;;;;;754723;76;26344;-71
2022/04/26 14:24:10;;;;;;;5.08;3.00;;;;;;;;;;773174;75;26246;-73
2022/04/26 14:25:13;;;;;;;5.65;3.00;;;;;;;;;;771984;76;26264;-72
2022/04/26 14:26:17;;;;;;;6.22;2.72;;;;;;;;;;778778;75;26257;-72
2022/04/26 14:27:20;;;;;;;5.95;2.90;;;;;;;;;;769927;76;26686;-70
2022/04/26 14:28:23;;;;;;;2.90;2.60;;;;;;;;;;777788;75;26241;-72
2022/04/26 14:29:25;;;;;;;4.90;3.37;;;;;;;;;;775090;75;26318;-70
2022/04/26 14:33:15;;;;;;;3.47;3.10;;;;;;;;;;762452;75;26274;-73
2022/04/26 14:43:58;;;;;;;4.72;2.80;;;;;;;;;;788042;75;26653;-72
2022/04/26 14:45:00;;;;;;;3.00;2.80;;;;;;;;;;787119;74;26247;-71
2022/04/26 14:46:03;;;;;;;6.58;2.80;;;;;;;;;;788359;75;26231;-71
2022/04/26 14:47:12;;;;;;;3.00;2.70;;;;;;;;;;774921;75;26247;-71
2022/04/26 14:48:11;;;;;;;3.37;3.00;;;;;;;;;;784921;74;26247;-72
2022/04/26 14:49:14;;;;;;;4.05;3.02;;;;;;;;;;780054;74;26329;-75
2022/04/26 14:53:02;;;;;;;3.85;2.58;;;;;;;;;;807334;73;26153;-75
2022/04/26 14:54:07;;;;;;;5.78;2.70;;;;;;;;;;800236;72;26216;-73
2022/04/26 14:55:10;;;;;;;3.10;2.90;;;;;;;;;;804486;73;26704;-73
2022/04/26 14:56:13;;;;;;;4.25;2.80;;;;;;;;;;807287;72;26227;-72
2022/04/26 14:57:18;;;;;;;4.37;2.40;;;;;;;;;;798685;73;26310;-72
2022/04/26 14:58:21;;;;;;;2.67;2.20;;;;;;;;;;807942;72;26216;-71
2022/04/26 15:01:11;;;;;;;2.58;2.37;;;;;;;;;;772987;75;26346;-72
2022/04/26 15:02:21;;;;;;;4.05;2.58;;;;;;;;;;776676;76;26291;-73
2022/04/26 15:03:20;;;;;;;3.80;2.42;;;;;;;;;;772757;76;26237;-71
2022/04/26 15:04:25;;;;;;;4.83;2.35;;;;;;;;;;776627;76;26768;-72
2022/04/26 15:05:28;;;;;;;4.58;2.05;;;;;;;;;;776610;76;26235;-72
2022/04/26 15:06:31;;;;;;;2.50;2.30;;;;;;;;;;776747;76;26294;-73
2022/04/26 15:09:42;;;;;;;3.83;2.50;;;;;;;;;;776757;76;26756;-73
2022/04/26 15:16:40;;;;;;;3.45;2.40;;;;;;;;;;787872;75;26239;-72
2022/04/26 15:17:44;;;;;;;2.55;2.35;;;;;;;;;;783587;74;26664;-72
2022/04/26 15:18:47;;;;;;;2.70;2.50;;;;;;;;;;783278;74;26238;-72
2022/04/26 15:23:41;;;;;;;4.80;3.17;;;;;;;;;;778002;75;26191;-73
2022/04/26 15:24:44;;;;;;;2.40;2.23;;;;;;;;;;773343;74;26312;-72
2022/04/26 15:25:52;;;;;;;2.92;2.70;;;;;;;;;;768925;76;26712;-72
2022/04/26 15:26:55;;;;;;;2.10;2.00;;;;;;;;;;776560;76;26665;-72
2022/04/26 15:27:58;;;;;;;3.98;2.30;;;;;;;;;;767471;75;26246;-71
2022/04/26 15:29:01;;;;;;;2.40;2.30;;;;;;;;;;773022;76;26253;-72
2022/04/26 15:31:50;;;;;;;2.62;2.42;;;;;;;;;;779997;74;26335;-72
2022/04/26 15:32:53;;;;;;;2.58;2.35;;;;;;;;;;778423;75;26730;-73
2022/04/26 15:33:56;;;;;;;2.37;2.17;;;;;;;;;;778941;75;26253;-72
2022/04/26 15:34:59;;;;;;;2.47;2.37;;;;;;;;;;785881;75;26744;-72
2022/04/26 15:36:03;;;;;;;2.95;2.75;;;;;;;;;;777640;75;26423;-72